Meteo Giornale » Osservazioni meteo Stati Uniti (USA) » Gainesville
ore: 21:53 - Osservazioni Meteo Gainesville
Lat. 29° 41' N Lon. 82° 16' W Alt. 46 metri s.l.m.
26 °C
Poco Nuvoloso
Temp. 24 Ore
23 °C
33 °C
Est/Nord-Est
9.3 Km/h
Dew point 24 °C
Umidità 88 %
Visibilità 10 Km
Il sole sorge alle ore 07:05
Il sole tramonta alle ore 19:52
| Data e Ora | Cielo e Fenomeni | T °C | DP °C | Um. % | Pres. hPa | Vis. km | Vento km/h | |
|---|---|---|---|---|---|---|---|---|
| Oggi h: 21:53 | Poco Nuvoloso | 26 | 24 | 88 | 1019 | 10 | E/NE 9.3 | |
| Oggi h: 20:53 | Nuvoloso | 26 | 24 | 88 | 1018 | 10 | N 5.5 | |
| Oggi h: 19:53 | Nuvoloso | 27 | 25 | 88 | 1017 | 10 | N 0 | |
| Oggi h: 18:53 | Poco Nuvoloso | 27 | 25 | 88 | 1018 | 10 | NE 7.4 | |
| Oggi h: 18:31 | Pioggia | 27 | 24 | 83 | 1018 | 10 | N 0 | |
| Oggi h: 18:19 | Temporale | 27 | 24 | 83 | 1017 | 10 | N 5.5 | |
| Oggi h: 17:53 | Temporale nelle vicinanze Pioggia | 25 | 24 | 94 | 1017 | 5 | S 13 | |
| Oggi h: 17:49 | Temporale Foschia | 25 | 24 | 94 | 1017 | 5 | S/SE 14.8 | |
| Oggi h: 17:42 | Temporale Foschia | 24 | 23 | 94 | 1017 | 5 | S/SE 11.1 | |
| Oggi h: 17:25 | Temporale Nebbia | 25 | 23 | 88 | 1018 | 2 | E 18.5 | |
| Oggi h: 17:16 | Temporale Foschia | 26 | 24 | 88 | 1017 | 2 | NE 31.5 | |
| Oggi h: 17:02 | Temporale | 28 | 24 | 78 | 1017 | 10 | E 14.8 | |
| Oggi h: 16:53 | Molto Nuvoloso | 31 | 24 | 66 | 1017 | 10 | E/NE 13 | |
| Oggi h: 15:53 | Nuvoloso | 32 | 22 | 55 | 1017 | 10 | NO 7.4 | |
| Oggi h: 14:53 | Nuvoloso | 33 | 22 | 52 | 1017 | 10 | SE 9.3 | |
| Oggi h: 13:53 | Nuvoloso | 32 | 22 | 55 | 1018 | 10 | N/NE 11.1 | |
| Oggi h: 12:53 | Poco Nuvoloso | 31 | 23 | 62 | 1019 | 10 | N 0 | |
| Oggi h: 12:01 | Nuvoloso | 30 | 23 | 66 | 1020 | 10 | N 5.5 | |
| Oggi h: 11:53 | Molto Nuvoloso | 30 | 24 | 70 | 1020 | 10 | E/NE 11.1 | |
| Oggi h: 10:53 | Sereno | 28 | 24 | 78 | 1019 | 10 | N 0 | |
| Oggi h: 10:41 | Nuvoloso | 28 | 24 | 78 | 1019 | 10 | N 0 | |
| Oggi h: 09:53 | Molto Nuvoloso | 26 | 24 | 88 | 1019 | 10 | N 0 | |
| Oggi h: 08:53 | Coperto | 25 | 24 | 94 | 1019 | 10 | N 5.5 | |
| Oggi h: 08:29 | Foschia | 24 | 24 | 100 | 1019 | 10 | N 5.5 | |
| Oggi h: 08:19 | Foschia | 24 | 24 | 100 | 1019 | 2 | N 5.5 | |
| Oggi h: 07:53 | Foschia | 24 | 23 | 94 | 1018 | 5 | N 0 | |
| Oggi h: 07:02 | Coperto | 24 | 23 | 94 | 1018 | 10 | N 7.4 | |
| Oggi h: 06:53 | Coperto | 23 | 23 | 100 | 1018 | 10 | N 9.3 | |
| Oggi h: 05:53 | Coperto | 23 | 23 | 100 | 1018 | 10 | N 0 | |
| Oggi h: 05:25 | Molto Nuvoloso | 23 | 23 | 100 | 1017 | 10 | N 0 | |
| Oggi h: 05:12 | Nuvoloso | 24 | 23 | 94 | 1017 | 10 | N 0 | |
| Oggi h: 04:53 | Poco Nuvoloso | 24 | 23 | 94 | 1017 | 10 | N 0 | |
| Oggi h: 04:41 | Poco Nuvoloso | 24 | 23 | 94 | 1017 | 10 | N 0 | |
| Oggi h: 04:09 | Molto Nuvoloso | 24 | 23 | 94 | 1018 | 10 | N 0 | |
| Oggi h: 03:53 | Poco Nuvoloso | 24 | 23 | 94 | 1018 | 10 | N 0 | |
| Oggi h: 03:00 | Nuvoloso | 24 | 23 | 94 | 1018 | 10 | N 0 | |
| Oggi h: 02:53 | Molto Nuvoloso | 24 | 23 | 94 | 1018 | 10 | N 0 | |
| Oggi h: 02:44 | Molto Nuvoloso | 24 | 23 | 94 | 1018 | 10 | N 0 | |
| Oggi h: 02:30 | Nuvoloso | 24 | 23 | 94 | 1018 | 10 | N 0 | |
| Oggi h: 01:53 | Coperto | 24 | 24 | 100 | 1018 | 10 | N 5.5 | |
| Oggi h: 01:34 | Molto Nuvoloso | 24 | 24 | 100 | 1018 | 10 | N 0 | |
| Oggi h: 01:15 | Poco Nuvoloso | 24 | 23 | 94 | 1018 | 10 | N 5.5 | |
| Oggi h: 00:53 | Sereno | 24 | 23 | 94 | 1018 | 10 | N 0 | |
| Ieri h: 23:53 | Sereno | 24 | 24 | 100 | 1018 | 10 | N 0 | |
| Ieri h: 22:53 | Sereno | 25 | 24 | 94 | 1019 | 10 | N 0 | |



